Flight Track Log - Related Links

Times and Time Zones

All times are in EDT time to prevent confusion due to time zone crossing. See the EJM918 flight status page for this flight to view local times or setup timezone preferences in your user account.

Time Position Orientation Groundspeed Altitude Reporting Facility
EDT Latitude Longitude Course Direction KTS MPH feet Rate Location/Type
Wed 03:55:32 PM 41.1001 -73.8027 282° West 275 316 4,000  Level FlightAware
Wed 03:56:18 PM 41.1134 -73.8819 283° West 285 328 7,800 4,800 Climbing FlightAware
Wed 03:56:22 PM 41.1154 -73.8893 290° West 298 343 8,000 2,667 Climbing FlightAware
Wed 03:56:27 PM 41.1185 -73.8970 298° West 298 343 8,200 1,800 Climbing FlightAware
Wed 03:56:42 PM 41.1327 -73.9162 314° West 298 343 8,600 1,263 Climbing FlightAware
Wed 03:56:46 PM 41.1377 -73.9199 331° Northwest 297 342 8,600  Level FlightAware
Wed 03:56:52 PM 41.1463 -73.9240 340° North 294 338 8,600  Level FlightAware
Wed 03:57:05 PM 41.1634 -73.9247 358° North 292 336 8,600  Level FlightAware
Wed 03:57:09 PM 41.1681 -73.9232 14° North 290 334 8,600  Level FlightAware
Wed 03:57:12 PM 41.1718 -73.9214 20° North 287 330 8,600  Level FlightAware
Wed 03:57:15 PM 41.1755 -73.9191 25° Northeast 285 328 8,600  Level FlightAware
Wed 03:57:20 PM 41.1809 -73.9144 33° Northeast 281 323 8,600  Level FlightAware
Wed 03:57:23 PM 41.1839 -73.9111 40° Northeast 280 322 8,600  Level FlightAware
Wed 03:57:38 PM 41.1947 -73.8898 56° Northeast 275 316 8,600  Level FlightAware
Wed 03:57:54 PM 41.2034 -73.8662 64° Northeast 274 315 8,600  Level FlightAware
Wed 03:59:16 PM 41.2421 -73.7377 68° East 273 314 8,600  Level FlightAware
Wed 03:59:32 PM 41.2483 -73.7120 72° East 274 315 8,600  Level FlightAware
Wed 04:01:23 PM 41.3066 -73.5461 65° Northeast 279 321 8,600  Level FlightAware (KSNC)
Wed 04:01:47 PM 41.3286 -73.5168 45° Northeast 279 321 8,600  Level FlightAware (KSNC)
Wed 04:02:22 PM 41.3603 -73.4743 45° Northeast 277 319 8,600  Level FlightAware (KSNC)
Wed 04:02:45 PM 41.3809 -73.4468 45° Northeast 278 320 8,600  Level FlightAware (KSNC)
Wed 04:03:09 PM 41.4025 -73.4181 45° Northeast 280 322 8,600  Level FlightAware (KSNC)
Wed 04:03:32 PM 41.4242 -73.3891 45° Northeast 278 320 8,600  Level FlightAware (KSNC)
Wed 04:04:13 PM 41.4591 -73.3421 45° Northeast 277 319 8,600  Level FlightAware (KSNC)
Wed 04:04:42 PM 41.4806 -73.3132 45° Northeast 279 321 8,600  Level FlightAware (KSNC)
Wed 04:05:03 PM 41.5060 -73.2783 46° Northeast 274 315 8,600  Level FlightAware (KSNC)
Wed 04:05:35 PM 41.5333 -73.2404 46° Northeast 273 314 8,600  Level FlightAware (KSNC)
Wed 04:06:03 PM 41.5567 -73.2083 46° Northeast 272 313 8,600  Level FlightAware (KSNC)
Wed 04:06:21 PM 41.5748 -73.1832 46° Northeast 272 313 8,600 -808 Level FlightAware (KSNC)
Wed 04:06:55 PM 41.5878 -73.1650 46° Northeast 270 311 7,900 -1,309 Descending FlightAware (KSNC)
Wed 04:07:16 PM 41.6172 -73.1240 46° Northeast 274 315 7,400 -1,463 Descending FlightAware (KSNC)
Wed 04:07:36 PM 41.6382 -73.0950 46° Northeast 267 307 6,900 -1,385 Descending FlightAware (KSNC)
Wed 04:08:21 PM 41.6785 -73.0391 46° Northeast 262 302 5,900 -1,304 Descending FlightAware (KSNC)
Wed 04:08:45 PM 41.6900 -73.0231 46° Northeast 262 302 5,400 -1,358 Descending FlightAware (KSNC)
Wed 04:09:14 PM 41.7220 -72.9781 46° Northeast 256 295 4,700 -1,375 Descending FlightAware (KSNC)
Wed 04:09:33 PM 41.7376 -72.9565 46° Northeast 253 291 4,300 -1,174 Descending FlightAware (KSNC)
Wed 04:10:00 PM 41.7582 -72.9278 46° Northeast 245 282 3,800 -1,277 Descending FlightAware (KSNC)
Wed 04:10:20 PM 41.7743 -72.9051 46° Northeast 239 275 3,300 -765 Descending FlightAware (KSNC)
Wed 04:11:42 PM 41.8267 -72.8356 46° Northeast 196 226 2,500 -574 Descending Boston Center
Wed 04:12:36 PM 41.8581 -72.7969 42° Northeast 166 191 2,000 -556 Descending Boston Center
Wed 04:13:30 PM 41.8872 -72.7608 43° Northeast 145 167 1,500 -626 Descending Boston Center
Wed 04:14:31 PM 41.9103 -72.7303 45° Northeast 118 136 800 -689 Descending Boston Center

Login

Don't have an account? Register now (free) for customized features, flight alerts, and more!